Time;durP1;ratioP1;P1;durP2;ratioP2;P2;SDS_P1;SDS_P2;PMS_P1;PMS_P2;Temp;Humidity;BMP_temperature;BMP_pressure;BME280_temperature;BME280_humidity;BME280_pressure;Samples;Min_cycle;Max_cycle;Signal;HPM_P1;HPM_P2
2024/04/02 00:01:57;;;;;;;;;;;6.40;99.90;;;;;;4975641;28;19910;-56
2024/04/02 00:04:22;;;;;;;;;;;6.40;99.90;;;;;;4974189;28;19914;-54
2024/04/02 00:06:48;;;;;;;;;;;6.40;99.90;;;;;;4975222;28;19913;-57
2024/04/02 00:09:14;;;;;;;;;;;6.40;99.90;;;;;;4974608;28;20359;-54
2024/04/02 00:11:39;;;;;;;;;;;6.50;99.90;;;;;;4942740;28;19992;-56
2024/04/02 00:14:05;;;;;;;;;;;6.50;99.90;;;;;;4970190;28;20009;-56
2024/04/02 00:16:30;;;;;;;;;;;6.60;99.90;;;;;;4972759;28;20286;-54
2024/04/02 00:18:56;;;;;;;;;;;6.80;99.90;;;;;;4978789;28;19949;-56
2024/04/02 00:21:21;;;;;;;;;;;6.80;99.90;;;;;;4973551;28;19910;-55
2024/04/02 00:23:47;;;;;;;;;;;7.00;99.90;;;;;;4973250;28;19975;-53
2024/04/02 00:26:12;;;;;;;;;;;7.00;99.90;;;;;;4971262;28;20004;-53
2024/04/02 00:28:38;;;;;;;;;;;7.20;99.90;;;;;;4976131;28;19914;-55
2024/04/02 00:31:06;;;;;;;;;;;7.20;99.90;;;;;;4973370;28;19906;-56
2024/04/02 00:33:31;;;;;;;;;;;7.30;99.90;;;;;;4974171;28;19997;-54
2024/04/02 00:36:01;;;;;;;;;;;7.40;99.90;;;;;;4973085;28;19989;-53
2024/04/02 00:38:26;;;;;;;;;;;7.50;99.90;;;;;;4973485;28;19964;-53
2024/04/02 00:40:52;;;;;;;;;;;7.50;99.90;;;;;;4973936;28;19953;-56
2024/04/02 00:43:17;;;;;;;;;;;7.50;99.90;;;;;;4974275;28;19909;-56
2024/04/02 00:45:43;;;;;;;;;;;7.50;99.90;;;;;;4974646;28;19960;-54
2024/04/02 00:48:09;;;;;;;;;;;7.50;99.90;;;;;;4973578;28;19917;-56
2024/04/02 00:50:34;;;;;;;;;;;7.40;99.90;;;;;;4972368;28;19910;-53
2024/04/02 00:53:00;;;;;;;;;;;7.50;99.90;;;;;;4974852;28;19917;-54
2024/04/02 00:55:26;;;;;;;;;;;7.50;99.90;;;;;;4974470;28;20290;-57
2024/04/02 00:57:51;;;;;;;;;;;7.60;99.90;;;;;;4974331;28;19910;-56
2024/04/02 01:00:17;;;;;;;;;;;7.60;99.90;;;;;;4970801;28;19910;-58
2024/04/02 01:02:42;;;;;;;;;;;7.50;99.90;;;;;;4973327;28;19917;-56
2024/04/02 01:05:08;;;;;;;;;;;7.50;99.90;;;;;;4975610;28;19922;-54
2024/04/02 01:07:34;;;;;;;;;;;7.50;99.90;;;;;;4973039;28;19906;-55
2024/04/02 01:09:59;;;;;;;;;;;7.50;99.90;;;;;;4975370;28;20271;-53
2024/04/02 01:12:25;;;;;;;;;;;7.40;99.90;;;;;;4971780;28;19906;-55
2024/04/02 01:14:50;;;;;;;;;;;7.40;99.90;;;;;;4973046;28;20318;-53
2024/04/02 01:17:17;;;;;;;;;;;7.30;99.90;;;;;;4969902;28;19917;-53
2024/04/02 01:19:42;;;;;;;;;;;7.30;99.90;;;;;;4973653;28;19941;-53
2024/04/02 01:22:07;;;;;;;;;;;7.20;99.90;;;;;;4971301;28;20333;-54
2024/04/02 01:24:33;;;;;;;;;;;7.10;99.90;;;;;;4973024;28;19961;-55
2024/04/02 01:26:59;;;;;;;;;;;7.00;99.90;;;;;;4974918;28;20760;-53
2024/04/02 01:29:25;;;;;;;;;;;6.90;99.90;;;;;;4975572;28;19949;-54
2024/04/02 01:31:53;;;;;;;;;;;6.80;99.90;;;;;;4972787;28;19912;-54
2024/04/02 01:34:18;;;;;;;;;;;6.80;99.90;;;;;;4973639;28;20325;-54
2024/04/02 01:36:44;;;;;;;;;;;6.70;99.90;;;;;;4973300;28;19936;-57
2024/04/02 01:39:09;;;;;;;;;;;6.60;99.90;;;;;;4973575;28;19914;-55
2024/04/02 01:41:35;;;;;;;;;;;6.60;99.90;;;;;;4973682;28;19916;-55
2024/04/02 01:44:02;;;;;;;;;;;6.50;99.90;;;;;;4972705;28;19984;-55
2024/04/02 01:46:28;;;;;;;;;;;6.50;99.90;;;;;;4965888;28;19949;-58
2024/04/02 01:48:53;;;;;;;;;;;6.40;99.90;;;;;;4972958;28;19945;-53
2024/04/02 01:51:19;;;;;;;;;;;6.30;99.90;;;;;;4970424;28;19910;-55
2024/04/02 01:53:44;;;;;;;;;;;6.30;99.90;;;;;;4974094;28;20282;-51
2024/04/02 01:56:10;;;;;;;;;;;6.30;99.90;;;;;;4974435;28;19906;-55
2024/04/02 01:58:35;;;;;;;;;;;6.30;99.90;;;;;;4975352;28;20005;-52
2024/04/02 02:01:01;;;;;;;;;;;6.30;99.90;;;;;;4979122;28;19910;-51
2024/04/02 02:03:26;;;;;;;;;;;6.30;99.90;;;;;;4990300;28;20357;-52
2024/04/02 02:05:52;;;;;;;;;;;6.40;99.90;;;;;;4993825;28;19906;-53
2024/04/02 02:08:17;;;;;;;;;;;6.40;99.90;;;;;;4993498;28;19964;-51
2024/04/02 02:10:43;;;;;;;;;;;6.50;99.90;;;;;;4991571;28;19921;-52
2024/04/02 02:13:08;;;;;;;;;;;6.60;99.90;;;;;;4993203;28;19910;-52
2024/04/02 02:15:37;;;;;;;;;;;6.70;99.90;;;;;;4992678;28;20373;-54
2024/04/02 02:18:03;;;;;;;;;;;6.80;99.90;;;;;;4993402;28;19913;-52
2024/04/02 02:20:28;;;;;;;;;;;6.90;99.90;;;;;;4993244;28;19909;-54
2024/04/02 02:22:54;;;;;;;;;;;7.00;99.90;;;;;;4993641;28;19928;-51
2024/04/02 02:25:19;;;;;;;;;;;7.00;99.90;;;;;;4993655;28;20291;-52
2024/04/02 02:27:44;;;;;;;;;;;7.00;99.90;;;;;;4993497;28;19952;-52
2024/04/02 02:30:10;;;;;;;;;;;7.10;99.90;;;;;;4993332;28;19910;-52
2024/04/02 02:32:36;;;;;;;;;;;7.10;99.90;;;;;;4993684;28;19960;-55
2024/04/02 02:35:01;;;;;;;;;;;7.10;99.90;;;;;;4993830;28;19913;-52
2024/04/02 02:37:28;;;;;;;;;;;7.10;99.90;;;;;;4993704;28;20342;-52
2024/04/02 02:39:53;;;;;;;;;;;7.00;99.90;;;;;;4993919;28;20370;-55
2024/04/02 02:42:19;;;;;;;;;;;7.00;99.90;;;;;;4993629;28;19917;-52
2024/04/02 02:44:45;;;;;;;;;;;6.90;99.90;;;;;;4993493;28;19960;-53
2024/04/02 02:47:10;;;;;;;;;;;6.90;99.90;;;;;;4993107;28;19905;-52
2024/04/02 02:49:36;;;;;;;;;;;6.80;99.90;;;;;;4993432;28;20008;-55
2024/04/02 02:52:01;;;;;;;;;;;6.80;99.90;;;;;;4993757;28;19905;-51
2024/04/02 02:54:27;;;;;;;;;;;6.80;99.90;;;;;;4993453;28;20354;-51
2024/04/02 02:56:52;;;;;;;;;;;6.80;99.90;;;;;;4993284;28;19921;-52
2024/04/02 02:59:18;;;;;;;;;;;6.80;99.90;;;;;;4993714;28;19909;-53
2024/04/02 03:01:44;;;;;;;;;;;6.90;99.90;;;;;;4993557;28;19910;-51
2024/04/02 03:04:09;;;;;;;;;;;6.90;99.90;;;;;;4993685;28;19917;-52
2024/04/02 03:06:35;;;;;;;;;;;6.90;99.90;;;;;;4993416;28;20297;-52
2024/04/02 03:09:00;;;;;;;;;;;6.90;99.90;;;;;;4982755;28;20421;-54
2024/04/02 03:11:26;;;;;;;;;;;6.90;99.90;;;;;;4973894;28;19944;-55
2024/04/02 03:13:51;;;;;;;;;;;6.90;99.90;;;;;;4974280;28;19960;-54
2024/04/02 03:16:19;;;;;;;;;;;6.90;99.90;;;;;;4974221;28;19956;-54
2024/04/02 03:18:45;;;;;;;;;;;6.90;99.90;;;;;;4973975;28;19913;-54
2024/04/02 03:21:14;;;;;;;;;;;7.00;99.90;;;;;;4973785;28;19910;-57
2024/04/02 03:23:39;;;;;;;;;;;7.00;99.90;;;;;;4973446;28;19914;-55
2024/04/02 03:26:05;;;;;;;;;;;7.00;99.90;;;;;;4973601;28;19910;-54
2024/04/02 03:28:30;;;;;;;;;;;7.10;99.90;;;;;;4974134;28;19996;-52
2024/04/02 03:30:56;;;;;;;;;;;7.10;99.90;;;;;;4976449;28;20372;-52
2024/04/02 03:33:22;;;;;;;;;;;7.10;99.90;;;;;;4977029;28;19910;-52
2024/04/02 03:35:47;;;;;;;;;;;7.20;99.90;;;;;;4977087;28;20172;-56
2024/04/02 03:38:13;;;;;;;;;;;7.20;99.90;;;;;;4976910;28;20259;-52
2024/04/02 03:40:39;;;;;;;;;;;7.30;99.90;;;;;;4976758;28;19915;-53
2024/04/02 03:43:04;;;;;;;;;;;7.30;99.90;;;;;;4977038;28;19913;-53
2024/04/02 03:45:30;;;;;;;;;;;7.30;99.90;;;;;;4976827;28;19910;-55
2024/04/02 03:47:56;;;;;;;;;;;7.30;99.90;;;;;;4976880;28;19906;-54
2024/04/02 03:50:21;;;;;;;;;;;7.30;99.90;;;;;;4977489;28;19910;-55
2024/04/02 03:52:46;;;;;;;;;;;7.30;99.90;;;;;;4977785;28;19906;-53
2024/04/02 03:55:12;;;;;;;;;;;7.40;99.90;;;;;;4977088;28;19913;-56
2024/04/02 03:57:37;;;;;;;;;;;7.40;99.90;;;;;;4977140;28;20012;-51
2024/04/02 04:00:03;;;;;;;;;;;7.40;99.90;;;;;;4976785;28;19972;-52
2024/04/02 04:02:29;;;;;;;;;;;7.40;99.90;;;;;;4977166;28;19906;-53
2024/04/02 04:04:54;;;;;;;;;;;7.40;99.90;;;;;;4976484;28;19917;-51
2024/04/02 04:07:20;;;;;;;;;;;7.40;99.90;;;;;;4976357;28;19960;-53
2024/04/02 04:09:46;;;;;;;;;;;7.50;99.90;;;;;;4976588;28;19906;-56
2024/04/02 04:12:11;;;;;;;;;;;7.50;99.90;;;;;;4976423;28;19910;-55
2024/04/02 04:14:37;;;;;;;;;;;7.50;99.90;;;;;;4976608;28;19988;-53
2024/04/02 04:17:02;;;;;;;;;;;7.50;99.90;;;;;;4976266;28;20389;-56
2024/04/02 04:19:28;;;;;;;;;;;7.50;99.90;;;;;;4976633;28;19960;-56
2024/04/02 04:21:53;;;;;;;;;;;7.50;99.90;;;;;;4976619;28;19961;-51
2024/04/02 04:24:19;;;;;;;;;;;7.50;99.90;;;;;;4975968;28;20012;-52
2024/04/02 04:26:44;;;;;;;;;;;7.50;99.90;;;;;;4976339;28;20405;-52
2024/04/02 04:29:10;;;;;;;;;;;7.50;99.90;;;;;;4976404;28;19914;-52
2024/04/02 04:31:43;;;;;;;;;;;7.50;99.90;;;;;;4976281;28;20389;-51
2024/04/02 04:34:08;;;;;;;;;;;7.50;99.90;;;;;;4975846;28;19975;-51
2024/04/02 04:36:33;;;;;;;;;;;7.50;99.90;;;;;;4976064;28;20004;-51
2024/04/02 04:38:59;;;;;;;;;;;7.50;99.90;;;;;;4976120;28;20286;-52
2024/04/02 04:41:24;;;;;;;;;;;7.60;99.90;;;;;;4975570;28;19906;-52
2024/04/02 04:43:50;;;;;;;;;;;7.50;99.90;;;;;;4976376;28;19913;-53
2024/04/02 04:46:15;;;;;;;;;;;7.60;99.90;;;;;;4975971;28;19922;-53
2024/04/02 04:48:41;;;;;;;;;;;7.60;99.90;;;;;;4975736;28;19993;-53
2024/04/02 04:51:06;;;;;;;;;;;7.60;99.90;;;;;;4975683;28;19906;-55
2024/04/02 04:53:32;;;;;;;;;;;7.60;99.90;;;;;;4975782;28;19906;-53
2024/04/02 04:56:01;;;;;;;;;;;7.60;99.90;;;;;;4975235;28;19906;-54
2024/04/02 04:58:27;;;;;;;;;;;7.60;99.90;;;;;;4975755;28;20330;-51
2024/04/02 05:00:52;;;;;;;;;;;7.60;99.90;;;;;;4975609;28;20000;-54
2024/04/02 05:03:18;;;;;;;;;;;7.60;99.90;;;;;;4975236;28;19964;-52
2024/04/02 05:05:43;;;;;;;;;;;7.60;99.90;;;;;;4975327;28;19914;-53
2024/04/02 05:08:21;;;;;;;;;;;7.60;99.90;;;;;;4973951;28;20297;-51
2024/04/02 05:10:47;;;;;;;;;;;7.60;99.90;;;;;;4976132;28;19917;-53
2024/04/02 05:13:14;;;;;;;;;;;7.70;99.90;;;;;;4975348;28;19906;-51
2024/04/02 05:15:39;;;;;;;;;;;7.70;99.90;;;;;;4975217;28;19905;-51
2024/04/02 05:18:06;;;;;;;;;;;7.70;99.90;;;;;;4975681;28;19906;-51
2024/04/02 05:20:31;;;;;;;;;;;7.70;99.90;;;;;;4975474;28;19906;-52
2024/04/02 05:22:57;;;;;;;;;;;7.70;99.90;;;;;;4975194;28;20381;-54
2024/04/02 05:25:22;;;;;;;;;;;7.70;99.90;;;;;;4974781;28;19910;-53
2024/04/02 05:27:48;;;;;;;;;;;7.80;99.90;;;;;;4974717;28;19933;-53
2024/04/02 05:30:13;;;;;;;;;;;7.80;99.90;;;;;;4975250;28;19906;-52
2024/04/02 05:32:39;;;;;;;;;;;7.80;99.90;;;;;;4975274;28;19906;-52
2024/04/02 05:35:04;;;;;;;;;;;7.80;99.90;;;;;;4974962;28;19929;-55
2024/04/02 05:37:30;;;;;;;;;;;7.90;99.90;;;;;;4974521;28;19906;-52
2024/04/02 05:39:55;;;;;;;;;;;7.90;99.90;;;;;;4974785;28;19914;-51
2024/04/02 05:42:21;;;;;;;;;;;8.00;99.90;;;;;;4974613;28;19914;-52
2024/04/02 05:44:47;;;;;;;;;;;8.00;99.90;;;;;;4974641;28;20287;-54
2024/04/02 05:47:12;;;;;;;;;;;8.10;99.90;;;;;;4974372;28;19906;-54
2024/04/02 05:49:38;;;;;;;;;;;8.10;99.90;;;;;;4974541;28;19949;-52
2024/04/02 05:52:03;;;;;;;;;;;8.10;99.90;;;;;;4974806;28;19997;-55
2024/04/02 05:54:29;;;;;;;;;;;8.20;99.90;;;;;;4974424;28;19913;-54
2024/04/02 05:56:54;;;;;;;;;;;8.20;99.90;;;;;;4974360;28;19993;-53
2024/04/02 05:59:20;;;;;;;;;;;8.30;99.90;;;;;;4974101;28;20433;-52
2024/04/02 06:01:45;;;;;;;;;;;8.30;99.90;;;;;;4974279;28;19944;-53
2024/04/02 06:04:11;;;;;;;;;;;8.40;99.90;;;;;;4974059;28;19914;-53
2024/04/02 06:06:36;;;;;;;;;;;8.40;99.90;;;;;;4973995;28;19913;-52
2024/04/02 06:09:02;;;;;;;;;;;8.50;99.90;;;;;;4973919;28;19910;-51
2024/04/02 06:11:27;;;;;;;;;;;8.50;99.90;;;;;;4974071;28;19956;-53
2024/04/02 06:13:52;;;;;;;;;;;8.50;99.90;;;;;;4974155;28;19913;-53
2024/04/02 06:16:18;;;;;;;;;;;8.60;99.90;;;;;;4973977;28;20366;-52
2024/04/02 06:18:43;;;;;;;;;;;8.60;99.90;;;;;;4974226;28;19917;-52
2024/04/02 06:21:09;;;;;;;;;;;8.60;99.90;;;;;;4974011;28;19913;-53
2024/04/02 06:23:34;;;;;;;;;;;8.70;99.90;;;;;;4973931;28;19945;-50
2024/04/02 06:26:00;;;;;;;;;;;8.70;99.90;;;;;;4974170;28;19917;-53
2024/04/02 06:28:25;;;;;;;;;;;8.70;99.90;;;;;;4974036;28;19913;-57
2024/04/02 06:30:51;;;;;;;;;;;8.70;99.90;;;;;;4973765;28;19906;-54
2024/04/02 06:33:17;;;;;;;;;;;8.70;99.90;;;;;;4974156;28;19906;-51
2024/04/02 06:35:43;;;;;;;;;;;8.80;99.90;;;;;;4972580;28;19906;-53
2024/04/02 06:38:08;;;;;;;;;;;8.90;99.90;;;;;;4962983;28;20449;-53
2024/04/02 06:40:34;;;;;;;;;;;9.00;99.90;;;;;;4958159;28;19953;-55
2024/04/02 06:42:59;;;;;;;;;;;9.20;99.90;;;;;;4954339;28;19921;-52
2024/04/02 06:45:26;;;;;;;;;;;9.40;99.90;;;;;;4973366;28;20017;-52
2024/04/02 06:47:51;;;;;;;;;;;9.60;99.90;;;;;;4973481;28;19906;-53
2024/04/02 06:50:17;;;;;;;;;;;9.70;99.90;;;;;;4972586;28;20337;-53
2024/04/02 06:52:42;;;;;;;;;;;9.70;99.90;;;;;;4973570;28;19906;-49
2024/04/02 06:55:08;;;;;;;;;;;10.00;99.90;;;;;;4973346;28;19910;-55
2024/04/02 06:57:33;;;;;;;;;;;10.20;99.90;;;;;;4973241;28;19910;-54
2024/04/02 06:59:59;;;;;;;;;;;10.40;99.90;;;;;;4972937;28;19933;-55
2024/04/02 07:02:24;;;;;;;;;;;10.60;99.90;;;;;;4973297;28;19906;-56
2024/04/02 07:04:50;;;;;;;;;;;10.70;99.90;;;;;;4974835;28;19910;-54
2024/04/02 07:07:16;;;;;;;;;;;10.70;99.90;;;;;;4977314;28;19906;-54
2024/04/02 07:09:41;;;;;;;;;;;11.50;99.90;;;;;;4976814;28;20314;-53
2024/04/02 07:12:08;;;;;;;;;;;12.70;99.90;;;;;;4976882;28;19905;-54
2024/04/02 07:14:33;;;;;;;;;;;14.10;99.90;;;;;;4976740;28;19917;-51
2024/04/02 07:16:59;;;;;;;;;;;15.40;99.90;;;;;;4976644;28;19906;-54
2024/04/02 07:19:24;;;;;;;;;;;16.20;99.90;;;;;;4976784;28;19914;-54
2024/04/02 07:21:50;;;;;;;;;;;17.10;99.90;;;;;;4976843;28;20412;-51
2024/04/02 07:24:15;;;;;;;;;;;17.80;99.10;;;;;;4976686;28;19914;-51
2024/04/02 07:26:41;;;;;;;;;;;18.00;96.60;;;;;;4976410;28;19921;-54
2024/04/02 07:29:06;;;;;;;;;;;17.70;97.00;;;;;;4976762;28;19906;-56
2024/04/02 07:31:32;;;;;;;;;;;17.00;96.60;;;;;;4976549;28;19945;-56
2024/04/02 07:33:57;;;;;;;;;;;16.70;97.30;;;;;;4976416;28;19913;-51
2024/04/02 07:36:22;;;;;;;;;;;15.70;97.70;;;;;;4976266;28;19906;-53
2024/04/02 07:38:48;;;;;;;;;;;15.40;99.40;;;;;;4965004;28;19925;-52
2024/04/02 07:41:13;;;;;;;;;;;15.00;99.90;;;;;;4976157;28;20270;-55
2024/04/02 07:43:39;;;;;;;;;;;14.50;99.90;;;;;;4976103;28;19906;-53
2024/04/02 07:46:04;;;;;;;;;;;13.90;99.90;;;;;;4976151;28;19953;-51
2024/04/02 07:48:30;;;;;;;;;;;13.70;99.90;;;;;;4976147;28;19906;-51
2024/04/02 07:50:56;;;;;;;;;;;13.60;99.90;;;;;;4976120;28;20374;-50
2024/04/02 07:53:23;;;;;;;;;;;13.60;99.90;;;;;;4976150;28;19906;-54
2024/04/02 07:55:49;;;;;;;;;;;13.40;99.90;;;;;;4975909;28;19916;-51
2024/04/02 07:58:14;;;;;;;;;;;13.20;99.90;;;;;;4976213;28;19997;-53
2024/04/02 08:00:41;;;;;;;;;;;12.90;99.90;;;;;;4975913;28;19961;-54
2024/04/02 08:03:07;;;;;;;;;;;12.70;99.90;;;;;;4976180;28;19906;-57
2024/04/02 08:05:32;;;;;;;;;;;12.50;99.90;;;;;;4975809;28;20290;-51
2024/04/02 08:07:58;;;;;;;;;;;12.10;99.90;;;;;;4976133;28;20150;-53
2024/04/02 08:10:23;;;;;;;;;;;11.80;99.90;;;;;;4976176;28;19910;-53
2024/04/02 08:12:49;;;;;;;;;;;11.50;99.90;;;;;;4975681;28;20013;-54
2024/04/02 08:15:14;;;;;;;;;;;11.40;99.90;;;;;;4975979;28;19910;-55
2024/04/02 08:17:39;;;;;;;;;;;11.40;99.90;;;;;;4974519;28;20317;-54
2024/04/02 08:20:05;;;;;;;;;;;11.30;99.90;;;;;;4975681;28;19992;-53
2024/04/02 08:22:31;;;;;;;;;;;11.40;99.90;;;;;;4958351;28;19917;-52
2024/04/02 08:24:57;;;;;;;;;;;11.40;99.90;;;;;;4975557;28;19914;-52
2024/04/02 08:27:22;;;;;;;;;;;11.40;99.90;;;;;;4974705;28;20020;-55
2024/04/02 08:29:51;;;;;;;;;;;11.40;99.90;;;;;;4975600;28;19913;-56
2024/04/02 08:32:16;;;;;;;;;;;11.40;99.90;;;;;;4975376;28;19913;-56
2024/04/02 08:34:42;;;;;;;;;;;11.40;99.90;;;;;;4975338;28;20370;-53
2024/04/02 08:37:08;;;;;;;;;;;11.30;99.90;;;;;;4975411;28;19906;-53
2024/04/02 08:39:33;;;;;;;;;;;11.30;99.90;;;;;;4941954;28;19925;-55
2024/04/02 08:42:01;;;;;;;;;;;11.30;99.90;;;;;;4967965;28;19910;-57
2024/04/02 08:44:30;;;;;;;;;;;11.30;99.90;;;;;;4974333;28;19917;-55
2024/04/02 08:46:55;;;;;;;;;;;11.20;99.90;;;;;;4975224;28;19954;-55
2024/04/02 08:49:21;;;;;;;;;;;11.20;99.90;;;;;;4975032;28;20290;-54
2024/04/02 08:51:48;;;;;;;;;;;11.20;99.90;;;;;;4974813;28;19914;-53
2024/04/02 08:54:13;;;;;;;;;;;11.20;99.90;;;;;;4974566;28;19984;-55
2024/04/02 08:56:40;;;;;;;;;;;11.30;99.90;;;;;;4974933;28;19997;-56
2024/04/02 08:59:07;;;;;;;;;;;11.30;99.90;;;;;;4975007;28;20327;-56
2024/04/02 09:01:32;;;;;;;;;;;11.40;99.90;;;;;;4974938;28;19906;-53
2024/04/02 09:04:00;;;;;;;;;;;11.50;99.90;;;;;;4974595;28;19921;-53
2024/04/02 09:06:25;;;;;;;;;;;11.60;99.90;;;;;;4974744;28;19906;-56
2024/04/02 09:08:52;;;;;;;;;;;11.80;99.90;;;;;;4975147;28;19916;-55
2024/04/02 09:11:18;;;;;;;;;;;11.80;99.90;;;;;;4975027;28;20384;-54
2024/04/02 09:13:44;;;;;;;;;;;12.00;99.90;;;;;;4974930;28;19906;-53
2024/04/02 09:16:10;;;;;;;;;;;12.10;99.90;;;;;;4974910;28;20001;-54
2024/04/02 09:18:37;;;;;;;;;;;12.10;99.90;;;;;;4974789;28;19934;-54
2024/04/02 09:21:03;;;;;;;;;;;12.20;99.90;;;;;;4974212;28;19929;-56
2024/04/02 09:23:28;;;;;;;;;;;12.20;99.90;;;;;;4974467;28;19910;-55
2024/04/02 09:25:54;;;;;;;;;;;12.20;99.90;;;;;;4973372;28;19914;-53
2024/04/02 09:28:20;;;;;;;;;;;12.20;99.90;;;;;;4974458;28;19924;-53
2024/04/02 09:30:45;;;;;;;;;;;12.30;99.90;;;;;;4974746;28;19913;-54
2024/04/02 09:33:11;;;;;;;;;;;12.40;99.90;;;;;;4974779;28;20424;-55
2024/04/02 09:36:01;;;;;;;;;;;12.60;99.90;;;;;;4974358;28;19956;-52
2024/04/02 09:38:27;;;;;;;;;;;12.90;99.90;;;;;;4970100;28;19997;-54
2024/04/02 09:40:53;;;;;;;;;;;13.20;99.90;;;;;;4958717;28;19921;-52
2024/04/02 09:43:19;;;;;;;;;;;13.50;99.90;;;;;;4973663;28;19906;-50
2024/04/02 09:45:46;;;;;;;;;;;13.50;99.90;;;;;;4974064;28;20383;-52
2024/04/02 09:48:12;;;;;;;;;;;13.50;99.90;;;;;;4973970;28;19906;-51
2024/04/02 09:50:39;;;;;;;;;;;13.30;99.90;;;;;;4974178;28;19906;-54
2024/04/02 09:53:04;;;;;;;;;;;13.00;99.90;;;;;;4973895;28;19978;-52
2024/04/02 09:55:31;;;;;;;;;;;12.80;99.90;;;;;;4973864;28;20399;-51
2024/04/02 09:57:57;;;;;;;;;;;12.60;99.90;;;;;;4973855;28;19906;-50
2024/04/02 10:00:23;;;;;;;;;;;12.50;99.90;;;;;;4974003;28;19910;-53
2024/04/02 10:02:50;;;;;;;;;;;12.40;99.90;;;;;;4973832;28;19914;-53
2024/04/02 10:05:22;;;;;;;;;;;12.50;99.90;;;;;;4974086;28;19982;-53
2024/04/02 10:07:50;;;;;;;;;;;12.70;99.90;;;;;;4973278;28;19906;-54
2024/04/02 10:10:17;;;;;;;;;;;12.80;99.90;;;;;;4973826;28;20583;-52
2024/04/02 10:12:42;;;;;;;;;;;12.80;99.90;;;;;;4973961;28;20367;-55
2024/04/02 10:15:12;;;;;;;;;;;12.80;99.90;;;;;;4973220;28;19912;-51
2024/04/02 10:17:38;;;;;;;;;;;12.80;99.90;;;;;;4973338;28;19906;-55
2024/04/02 10:20:27;;;;;;;;;;;12.90;99.90;;;;;;4973672;28;19906;-53
2024/04/02 10:22:53;;;;;;;;;;;13.10;99.90;;;;;;4964827;28;19906;-54
2024/04/02 10:25:18;;;;;;;;;;;13.40;99.90;;;;;;4973489;28;19910;-50
2024/04/02 10:27:44;;;;;;;;;;;13.60;99.90;;;;;;4973480;28;19953;-55
2024/04/02 10:30:20;;;;;;;;;;;13.90;99.90;;;;;;4973998;28;20303;-54
2024/04/02 10:32:46;;;;;;;;;;;14.20;99.90;;;;;;4973487;28;19992;-51
2024/04/02 10:35:20;;;;;;;;;;;14.40;99.90;;;;;;4973376;28;19956;-55
2024/04/02 10:37:47;;;;;;;;;;;14.60;99.90;;;;;;4973367;28;19910;-56
2024/04/02 10:40:13;;;;;;;;;;;14.50;99.90;;;;;;4962024;28;19914;-52
2024/04/02 10:42:38;;;;;;;;;;;14.60;99.90;;;;;;4973078;28;19913;-51
2024/04/02 10:45:10;;;;;;;;;;;14.70;99.90;;;;;;4971874;28;19910;-51
2024/04/02 10:47:36;;;;;;;;;;;14.60;99.90;;;;;;4972882;28;20419;-51
2024/04/02 10:50:03;;;;;;;;;;;14.30;99.90;;;;;;4973072;28;19906;-52
2024/04/02 10:52:34;;;;;;;;;;;14.00;99.90;;;;;;4973517;28;19929;-53
2024/04/02 10:54:59;;;;;;;;;;;14.10;99.90;;;;;;4973028;28;19914;-52
2024/04/02 10:57:26;;;;;;;;;;;14.10;99.90;;;;;;4973025;28;20428;-51
2024/04/02 10:59:52;;;;;;;;;;;14.20;99.90;;;;;;4973189;28;19972;-51
2024/04/02 11:02:18;;;;;;;;;;;14.00;99.90;;;;;;4973146;28;19906;-54
2024/04/02 11:04:45;;;;;;;;;;;14.00;99.90;;;;;;4953850;29;19917;-54
2024/04/02 11:07:11;;;;;;;;;;;14.20;99.90;;;;;;4968770;28;20371;-52
2024/04/02 11:09:39;;;;;;;;;;;13.90;99.90;;;;;;4972757;28;19917;-52
2024/04/02 11:12:05;;;;;;;;;;;14.00;99.90;;;;;;4973247;28;19906;-52
2024/04/02 11:14:30;;;;;;;;;;;13.80;99.90;;;;;;4973008;28;19906;-52
2024/04/02 11:16:56;;;;;;;;;;;13.60;99.90;;;;;;4972740;28;19914;-50
2024/04/02 11:19:21;;;;;;;;;;;13.60;99.90;;;;;;4973026;28;19913;-53
2024/04/02 11:21:52;;;;;;;;;;;13.60;99.90;;;;;;4973014;28;19913;-55
2024/04/02 11:27:02;;;;;;;;;;;13.20;99.90;;;;;;4972936;28;19912;-54
2024/04/02 11:29:27;;;;;;;;;;;13.30;99.90;;;;;;4972716;28;19910;-53
2024/04/02 11:31:53;;;;;;;;;;;13.20;99.90;;;;;;4972865;28;19906;-51
2024/04/02 11:34:19;;;;;;;;;;;13.20;99.90;;;;;;4972854;28;19910;-54
2024/04/02 11:36:45;;;;;;;;;;;13.10;99.90;;;;;;4972770;28;20040;-52
2024/04/02 11:39:10;;;;;;;;;;;13.20;99.90;;;;;;4958355;28;19969;-50
2024/04/02 11:41:41;;;;;;;;;;;13.00;99.90;;;;;;4973109;28;19910;-53
2024/04/02 11:44:06;;;;;;;;;;;12.80;99.90;;;;;;4972473;28;19937;-51
2024/04/02 11:46:32;;;;;;;;;;;12.70;99.90;;;;;;4972678;28;19914;-56
2024/04/02 11:48:57;;;;;;;;;;;12.70;99.90;;;;;;4955587;28;20282;-51
2024/04/02 11:51:23;;;;;;;;;;;12.70;99.90;;;;;;4974718;28;19910;-54
2024/04/02 11:53:48;;;;;;;;;;;12.70;99.90;;;;;;4976171;28;20322;-52
2024/04/02 11:56:14;;;;;;;;;;;12.70;99.90;;;;;;4976054;28;19906;-53
2024/04/02 12:01:23;;;;;;;;;;;12.70;99.90;;;;;;4976098;28;20012;-52
2024/04/02 12:03:49;;;;;;;;;;;12.60;99.90;;;;;;4975992;28;20330;-55
2024/04/02 12:06:15;;;;;;;;;;;12.40;99.90;;;;;;4975983;28;19913;-53
2024/04/02 12:08:41;;;;;;;;;;;12.40;99.90;;;;;;4975936;28;20379;-53
2024/04/02 12:11:07;;;;;;;;;;;12.10;99.90;;;;;;4969388;28;19906;-53
2024/04/02 12:13:32;;;;;;;;;;;12.00;99.90;;;;;;4975333;28;19997;-54
2024/04/02 12:15:58;;;;;;;;;;;11.80;99.90;;;;;;4975707;28;19910;-53
2024/04/02 12:18:24;;;;;;;;;;;11.70;99.90;;;;;;4958284;28;19948;-53
2024/04/02 12:20:49;;;;;;;;;;;11.50;99.90;;;;;;4975405;28;19949;-53
2024/04/02 12:23:15;;;;;;;;;;;11.40;99.90;;;;;;4975783;28;19913;-56
2024/04/02 12:25:41;;;;;;;;;;;11.20;99.90;;;;;;4975684;28;19917;-56
2024/04/02 12:28:06;;;;;;;;;;;11.20;99.90;;;;;;4975563;28;19906;-56
2024/04/02 12:30:32;;;;;;;;;;;11.20;99.90;;;;;;4975298;28;19913;-52
2024/04/02 12:32:57;;;;;;;;;;;11.30;99.90;;;;;;4975524;28;20008;-53
2024/04/02 12:35:23;;;;;;;;;;;11.50;99.90;;;;;;4975647;28;19974;-53
2024/04/02 12:37:48;;;;;;;;;;;11.60;99.90;;;;;;4973722;28;19910;-53
2024/04/02 12:40:14;;;;;;;;;;;11.60;99.90;;;;;;4959938;28;20480;-52
2024/04/02 12:42:39;;;;;;;;;;;11.50;99.90;;;;;;4975166;28;19976;-51
2024/04/02 12:45:05;;;;;;;;;;;11.50;99.90;;;;;;4975125;28;19920;-53
2024/04/02 12:47:31;;;;;;;;;;;11.40;99.90;;;;;;4975021;28;20358;-51
2024/04/02 12:49:56;;;;;;;;;;;11.40;99.90;;;;;;4971753;28;19921;-52
2024/04/02 12:52:22;;;;;;;;;;;11.50;99.90;;;;;;4975214;28;20398;-51
2024/04/02 12:54:47;;;;;;;;;;;11.50;99.90;;;;;;4975249;28;19906;-51
2024/04/02 12:57:13;;;;;;;;;;;11.50;99.90;;;;;;4975068;28;19997;-52
2024/04/02 12:59:38;;;;;;;;;;;11.60;99.90;;;;;;4974779;28;19910;-53
2024/04/02 13:02:04;;;;;;;;;;;11.50;99.90;;;;;;4974539;28;19906;-52
2024/04/02 13:04:29;;;;;;;;;;;11.60;99.90;;;;;;4975056;28;19941;-51
2024/04/02 13:06:55;;;;;;;;;;;11.70;99.90;;;;;;4974738;28;19909;-52
2024/04/02 13:09:20;;;;;;;;;;;11.70;99.90;;;;;;4974732;28;20314;-51
2024/04/02 13:11:46;;;;;;;;;;;11.70;99.90;;;;;;4974667;28;20009;-51
2024/04/02 13:14:12;;;;;;;;;;;11.80;99.90;;;;;;4974697;28;19906;-54
2024/04/02 13:16:37;;;;;;;;;;;11.80;99.90;;;;;;4974591;28;20351;-55
2024/04/02 13:19:04;;;;;;;;;;;11.70;99.90;;;;;;4974571;28;20042;-52
2024/04/02 13:21:30;;;;;;;;;;;11.70;99.90;;;;;;4974594;28;19910;-53
2024/04/02 13:23:59;;;;;;;;;;;11.60;99.90;;;;;;4974662;28;19914;-53
2024/04/02 13:26:25;;;;;;;;;;;11.50;99.90;;;;;;4974282;28;19914;-53
2024/04/02 13:28:55;;;;;;;;;;;11.40;99.90;;;;;;4974540;28;20282;-51
2024/04/02 13:31:22;;;;;;;;;;;11.40;99.90;;;;;;4974357;28;19961;-51
2024/04/02 13:33:54;;;;;;;;;;;11.30;99.90;;;;;;4974575;28;19933;-52
2024/04/02 13:36:20;;;;;;;;;;;11.30;99.90;;;;;;4974162;28;20322;-52
2024/04/02 13:38:47;;;;;;;;;;;11.20;99.90;;;;;;4974156;28;19913;-51
2024/04/02 13:41:13;;;;;;;;;;;11.10;99.90;;;;;;4958172;28;19922;-51
2024/04/02 13:43:38;;;;;;;;;;;10.90;99.90;;;;;;4974385;28;19910;-52
2024/04/02 13:46:04;;;;;;;;;;;10.90;99.90;;;;;;4974060;28;19914;-52
2024/04/02 13:48:30;;;;;;;;;;;10.80;99.90;;;;;;4973822;28;19906;-51
2024/04/02 13:51:12;;;;;;;;;;;10.80;99.90;;;;;;4973921;28;19906;-51
2024/04/02 13:53:38;;;;;;;;;;;10.70;99.90;;;;;;4974162;28;20442;-54
2024/04/02 13:56:04;;;;;;;;;;;10.80;99.90;;;;;;4973391;28;20018;-55
2024/04/02 13:58:30;;;;;;;;;;;10.90;99.90;;;;;;4972801;28;19937;-54
2024/04/02 14:00:56;;;;;;;;;;;10.90;99.90;;;;;;4973921;28;19906;-54
2024/04/02 14:03:22;;;;;;;;;;;11.00;99.90;;;;;;4974058;28;19910;-53
2024/04/02 14:06:02;;;;;;;;;;;11.00;99.90;;;;;;4973847;28;20267;-54
2024/04/02 14:08:28;;;;;;;;;;;11.10;99.90;;;;;;4973713;28;19910;-53
2024/04/02 14:10:54;;;;;;;;;;;11.10;99.90;;;;;;4973587;28;19997;-54
2024/04/02 14:13:20;;;;;;;;;;;11.20;99.90;;;;;;4974052;28;19933;-52
2024/04/02 14:15:46;;;;;;;;;;;11.30;99.90;;;;;;4972914;28;19906;-56
2024/04/02 14:18:11;;;;;;;;;;;11.30;99.90;;;;;;4972364;28;19932;-55
2024/04/02 14:20:38;;;;;;;;;;;11.40;99.90;;;;;;4973898;28;19913;-54
2024/04/02 14:23:05;;;;;;;;;;;11.50;99.90;;;;;;4973696;28;19990;-55